createdAt,value
2023-05-09T00:01:45.442Z,101710.34
2023-05-09T00:04:12.400Z,101715.53
2023-05-09T00:06:39.124Z,101707.78
2023-05-09T00:09:05.853Z,101699.19
2023-05-09T00:11:32.607Z,101700.00
2023-05-09T00:13:59.369Z,101702.59
2023-05-09T00:16:26.161Z,101699.84
2023-05-09T00:18:53.085Z,101695.44
2023-05-09T00:21:20.201Z,101695.25
2023-05-09T00:23:47.797Z,101692.69
2023-05-09T00:26:14.553Z,101687.50
2023-05-09T00:28:43.308Z,101687.47
2023-05-09T00:31:10.151Z,101683.03
2023-05-09T00:33:36.896Z,101680.50
2023-05-09T00:36:04.079Z,101677.09
2023-05-09T00:38:30.779Z,101672.78
2023-05-09T00:40:57.602Z,101667.66
2023-05-09T00:43:24.348Z,101667.53
2023-05-09T00:45:51.310Z,101661.56
2023-05-09T00:48:18.450Z,101652.94
2023-05-09T00:50:46.421Z,101651.22
2023-05-09T00:53:13.370Z,101644.34
2023-05-09T00:55:40.542Z,101643.47
2023-05-09T00:58:07.350Z,101642.56
2023-05-09T01:00:34.123Z,101637.41
2023-05-09T01:03:01.605Z,101638.22
2023-05-09T01:05:40.753Z,101636.34
2023-05-09T01:08:21.746Z,101636.38
2023-05-09T01:11:16.417Z,101627.69
2023-05-09T01:14:08.429Z,101626.81
2023-05-09T01:17:05.612Z,101629.44
2023-05-09T01:20:02.612Z,101625.09
2023-05-09T01:22:32.591Z,101634.56
2023-05-09T01:25:25.431Z,101632.00
2023-05-09T01:28:07.807Z,101637.09
2023-05-09T01:30:37.861Z,101637.09
2023-05-09T01:33:08.543Z,101631.03
2023-05-09T01:35:37.855Z,101636.13
2023-05-09T01:38:11.882Z,101639.59
2023-05-09T01:40:42.456Z,101642.22
2023-05-09T01:43:10.024Z,101636.22
2023-05-09T01:45:39.133Z,101640.41
2023-05-09T01:48:08.492Z,101647.03
2023-05-09T01:50:40.025Z,101636.56
2023-05-09T01:53:08.733Z,101642.75
2023-05-09T01:55:37.750Z,101645.38
2023-05-09T01:58:06.532Z,101635.94
2023-05-09T02:00:37.076Z,101630.81
2023-05-09T02:03:04.990Z,101630.81
2023-05-09T02:05:33.570Z,101629.78
2023-05-09T02:08:01.989Z,101625.22
2023-05-09T02:10:29.461Z,101637.97
2023-05-09T02:12:57.432Z,101632.78
2023-05-09T02:15:24.896Z,101626.78
2023-05-09T02:17:52.065Z,101625.03
2023-05-09T02:20:19.013Z,101619.88
2023-05-09T02:22:46.985Z,101620.75
2023-05-09T02:25:17.246Z,101621.50
2023-05-09T02:27:46.493Z,101631.88
2023-05-09T02:30:21.108Z,101625.94
2023-05-09T02:32:50.910Z,101628.63
2023-05-09T02:35:20.532Z,101620.69
2023-05-09T02:37:47.703Z,101629.34
2023-05-09T02:40:14.837Z,101631.13
2023-05-09T02:42:41.779Z,101619.84
2023-05-09T02:45:10.603Z,101628.38
2023-05-09T02:47:38.311Z,101621.50
2023-05-09T02:50:08.729Z,101630.16
2023-05-09T02:52:37.284Z,101633.59
2023-05-09T02:55:05.046Z,101638.75
2023-05-09T02:57:35.389Z,101642.94
2023-05-09T03:00:03.780Z,101644.56
2023-05-09T03:02:30.961Z,101639.28
2023-05-09T03:04:58.671Z,101639.41
2023-05-09T03:07:25.436Z,101635.22
2023-05-09T03:09:52.254Z,101639.50
2023-05-09T03:12:19.248Z,101647.34
2023-05-09T03:14:46.109Z,101641.31
2023-05-09T03:17:12.856Z,101637.75
2023-05-09T03:19:39.678Z,101639.50
2023-05-09T03:22:06.413Z,101637.84
2023-05-09T03:24:37.776Z,101640.47
2023-05-09T03:27:04.718Z,101637.94
2023-05-09T03:29:31.562Z,101648.22
2023-05-09T03:31:59.111Z,101649.06
2023-05-09T03:34:25.933Z,101653.22
2023-05-09T03:36:52.918Z,101649.78
2023-05-09T03:39:19.592Z,101649.75
2023-05-09T03:41:49.213Z,101651.50
2023-05-09T03:44:15.974Z,101648.91
2023-05-09T03:46:42.835Z,101649.81
2023-05-09T03:49:09.784Z,101644.56
2023-05-09T03:51:38.259Z,101645.47
2023-05-09T03:54:10.077Z,101646.31
2023-05-09T03:56:37.322Z,101647.13
2023-05-09T03:59:04.238Z,101640.19
2023-05-09T04:01:33.181Z,101639.44
2023-05-09T04:04:01.716Z,101635.97
2023-05-09T04:06:33.583Z,101626.41
2023-05-09T04:09:01.307Z,101637.53
2023-05-09T04:11:28.064Z,101635.69
2023-05-09T04:13:56.873Z,101640.69
2023-05-09T04:16:33.682Z,101644.06
2023-05-09T04:19:00.440Z,101636.22
2023-05-09T04:21:27.125Z,101642.22
2023-05-09T04:23:57.473Z,101639.59
2023-05-09T04:26:34.612Z,101639.81
2023-05-09T04:29:01.523Z,101644.09
2023-05-09T04:31:29.241Z,101642.34
2023-05-09T04:33:58.433Z,101645.84
2023-05-09T04:36:27.619Z,101644.28
2023-05-09T04:38:57.488Z,101647.03
2023-05-09T04:41:26.170Z,101656.53
2023-05-09T04:43:52.931Z,101649.72
2023-05-09T04:46:22.724Z,101656.59
2023-05-09T04:48:51.189Z,101658.31
2023-05-09T04:51:17.891Z,101661.81
2023-05-09T04:53:44.941Z,101652.28
2023-05-09T04:56:11.703Z,101659.09
2023-05-09T04:58:39.580Z,101658.22
2023-05-09T05:01:10.091Z,101654.81
2023-05-09T05:03:36.958Z,101662.63
2023-05-09T05:06:05.170Z,101660.13
2023-05-09T05:08:32.068Z,101659.38
2023-05-09T05:10:58.802Z,101655.22
2023-05-09T05:13:26.148Z,101660.59
2023-05-09T05:15:58.045Z,101656.44
2023-05-09T05:18:25.436Z,101659.16
2023-05-09T05:20:52.364Z,101660.97
2023-05-09T05:23:19.467Z,101666.28
2023-05-09T05:25:46.683Z,101669.81
2023-05-09T05:28:14.392Z,101663.88
2023-05-09T05:30:41.988Z,101666.53
2023-05-09T05:33:08.758Z,101669.19
2023-05-09T05:35:35.659Z,101670.13
2023-05-09T05:38:02.717Z,101672.78
2023-05-09T05:40:29.555Z,101676.31
2023-05-09T05:42:58.257Z,101678.94
2023-05-09T05:45:26.408Z,101670.41
2023-05-09T05:47:56.408Z,101666.16
2023-05-09T05:50:24.128Z,101670.50
2023-05-09T05:52:51.069Z,101662.75
2023-05-09T05:55:19.807Z,101663.66
2023-05-09T05:57:47.731Z,101649.06
2023-05-09T06:00:16.525Z,101660.28
2023-05-09T06:02:56.108Z,101668.97
2023-05-09T06:05:36.175Z,101655.19
2023-05-09T06:08:03.349Z,101653.50
2023-05-09T06:10:31.849Z,101647.50
2023-05-09T06:12:58.650Z,101645.91
2023-05-09T06:15:25.450Z,101644.22
2023-05-09T06:17:52.364Z,101631.31
2023-05-09T06:20:19.196Z,101639.16
2023-05-09T06:22:45.901Z,101637.50
2023-05-09T06:25:12.851Z,101641.88
2023-05-09T06:27:39.714Z,101636.81
2023-05-09T06:30:24.011Z,101642.91
2023-05-09T06:32:52.166Z,101636.13
2023-05-09T06:35:18.951Z,101632.69
2023-05-09T06:37:48.230Z,101631.00
2023-05-09T06:40:15.571Z,101638.81
2023-05-09T06:42:42.631Z,101638.88
2023-05-09T06:45:09.939Z,101633.75
2023-05-09T06:47:36.702Z,101626.88
2023-05-09T06:50:03.905Z,101632.03
2023-05-09T06:52:30.593Z,101630.34
2023-05-09T06:54:57.318Z,101638.25
2023-05-09T06:57:24.159Z,101636.50
2023-05-09T06:59:50.962Z,101642.63
2023-05-09T07:02:17.765Z,101640.94
2023-05-09T07:04:44.630Z,101645.28
2023-05-09T07:07:11.440Z,101637.50
2023-05-09T07:09:38.338Z,101636.72
2023-05-09T07:12:05.449Z,101645.34
2023-05-09T07:14:32.193Z,101644.50
2023-05-09T07:17:13.799Z,101635.94
2023-05-09T07:19:46.106Z,101636.81
2023-05-09T07:22:13.615Z,101630.78
2023-05-09T07:24:40.524Z,101631.66
2023-05-09T07:27:07.375Z,101632.56
2023-05-09T07:29:34.095Z,101639.53
2023-05-09T07:32:00.898Z,101637.84
2023-05-09T07:34:27.648Z,101628.41
2023-05-09T07:36:54.340Z,101621.53
2023-05-09T07:39:21.165Z,101618.09
2023-05-09T07:41:48.779Z,101618.13
2023-05-09T07:44:16.031Z,101627.63
2023-05-09T07:46:42.972Z,101616.41
2023-05-09T07:49:09.914Z,101615.56
2023-05-09T07:51:36.749Z,101613.84
2023-05-09T07:54:03.768Z,101613.84
2023-05-09T07:56:30.628Z,101606.91
2023-05-09T07:58:57.618Z,101610.41
2023-05-09T08:01:24.609Z,101606.06
2023-05-09T08:03:51.379Z,101606.06
2023-05-09T08:06:18.133Z,101608.66
2023-05-09T08:08:44.897Z,101606.91
2023-05-09T08:11:11.652Z,101600.00
2023-05-09T08:13:38.358Z,101591.34
2023-05-09T08:16:05.901Z,101594.78
2023-05-09T08:18:32.891Z,101596.50
2023-05-09T08:20:59.808Z,101590.44
2023-05-09T08:23:27.223Z,101586.94
2023-05-09T08:25:54.816Z,101587.75
2023-05-09T08:28:24.930Z,101591.19
2023-05-09T08:30:52.266Z,101594.63
2023-05-09T08:33:19.261Z,101593.75
2023-05-09T08:35:50.213Z,101597.19
2023-05-09T08:38:17.086Z,101599.72
2023-05-09T08:40:43.824Z,101591.91
2023-05-09T08:43:12.624Z,101600.56
2023-05-09T08:45:46.966Z,101597.13
2023-05-09T08:48:16.295Z,101588.44
2023-05-09T08:50:44.358Z,101591.88
2023-05-09T08:53:12.434Z,101589.31
2023-05-09T08:55:39.621Z,101582.38
2023-05-09T08:58:06.955Z,101584.16
2023-05-09T09:00:34.650Z,101587.59
2023-05-09T09:03:05.754Z,101585.81
2023-05-09T09:05:41.827Z,101578.03
2023-05-09T09:08:09.827Z,101581.50
2023-05-09T09:10:41.437Z,101582.28
2023-05-09T09:13:10.127Z,101571.84
2023-05-09T09:15:38.605Z,101570.88
2023-05-09T09:18:10.316Z,101570.88
2023-05-09T09:20:43.425Z,101564.78
2023-05-09T09:23:10.762Z,101572.63
2023-05-09T09:25:37.566Z,101565.72
2023-05-09T09:28:05.623Z,101576.03
2023-05-09T09:30:33.871Z,101570.81
2023-05-09T09:33:00.816Z,101560.41
2023-05-09T09:35:27.602Z,101569.88
2023-05-09T09:38:00.274Z,101573.38
2023-05-09T09:40:27.197Z,101576.03
2023-05-09T09:42:54.074Z,101568.16
2023-05-09T09:45:21.204Z,101563.78
2023-05-09T09:47:50.247Z,101565.47
2023-05-09T09:50:19.647Z,101562.06
2023-05-09T09:52:52.094Z,101555.16
2023-05-09T09:55:20.153Z,101556.88
2023-05-09T09:57:48.557Z,101559.41
2023-05-09T10:00:17.990Z,101549.00
2023-05-09T10:02:48.330Z,101553.28
2023-05-09T10:05:24.234Z,101556.69
2023-05-09T10:07:54.949Z,101549.81
2023-05-09T10:10:22.732Z,101549.75
2023-05-09T10:12:51.168Z,101553.16
2023-05-09T10:15:20.415Z,101556.59
2023-05-09T10:17:48.592Z,101556.56
2023-05-09T10:20:17.646Z,101550.44
2023-05-09T10:22:45.717Z,101547.69
2023-05-09T10:25:23.508Z,101549.34
2023-05-09T10:27:54.183Z,101552.03
2023-05-09T10:30:34.098Z,101534.41
2023-05-09T10:33:09.080Z,101534.38
2023-05-09T10:35:40.798Z,101538.72
2023-05-09T10:38:07.943Z,101534.25
2023-05-09T10:40:35.326Z,101529.84
2023-05-09T10:43:02.058Z,101535.03
2023-05-09T10:45:29.006Z,101534.13
2023-05-09T10:47:56.995Z,101528.03
2023-05-09T10:50:24.317Z,101525.50
2023-05-09T10:53:08.094Z,101520.28
2023-05-09T10:55:46.670Z,101518.50
2023-05-09T10:58:24.865Z,101508.06
2023-05-09T11:00:57.785Z,101512.47
2023-05-09T11:03:26.066Z,101514.13
2023-05-09T11:05:55.316Z,101509.69
2023-05-09T11:08:28.840Z,101504.44
2023-05-09T11:11:05.574Z,101505.19
2023-05-09T11:13:37.717Z,101500.75
2023-05-09T11:16:07.998Z,101496.53
2023-05-09T11:18:34.823Z,101494.94
2023-05-09T11:21:08.862Z,101492.97
2023-05-09T11:23:35.660Z,101500.03
2023-05-09T11:26:07.325Z,101490.50
2023-05-09T11:28:36.812Z,101486.00
2023-05-09T11:31:14.826Z,101487.47
2023-05-09T11:33:43.577Z,101482.19
2023-05-09T11:36:25.178Z,101477.88
2023-05-09T11:39:01.839Z,101471.81
2023-05-09T11:41:29.225Z,101467.41
2023-05-09T11:43:57.112Z,101468.38
2023-05-09T11:46:23.976Z,101471.00
2023-05-09T11:48:50.731Z,101468.25
2023-05-09T11:51:19.066Z,101461.28
2023-05-09T11:53:54.157Z,101464.69
2023-05-09T11:56:23.149Z,101462.22
2023-05-09T11:58:51.957Z,101461.31
2023-05-09T12:01:19.697Z,101458.81
2023-05-09T12:03:46.686Z,101455.69
2023-05-09T12:06:18.298Z,101446.09
2023-05-09T12:08:46.318Z,101442.59
2023-05-09T12:11:16.262Z,101432.81
2023-05-09T12:13:50.231Z,101435.44
2023-05-09T12:16:18.453Z,101432.03
2023-05-09T12:18:50.192Z,101423.41
2023-05-09T12:21:17.936Z,101424.03
2023-05-09T12:23:47.046Z,101425.00
2023-05-09T12:26:16.418Z,101420.72
2023-05-09T12:28:43.944Z,101420.69
2023-05-09T12:31:11.599Z,101412.75
2023-05-09T12:33:39.500Z,101404.03
2023-05-09T12:36:06.557Z,101413.72
2023-05-09T12:38:33.717Z,101412.16
2023-05-09T12:41:04.232Z,101407.53
2023-05-09T12:43:35.131Z,101411.06
2023-05-09T12:46:03.394Z,101408.13
2023-05-09T12:48:34.769Z,101403.88
2023-05-09T12:51:05.976Z,101393.53
2023-05-09T12:53:40.474Z,101402.00
2023-05-09T12:56:16.470Z,101396.78
2023-05-09T12:58:54.870Z,101389.91
2023-05-09T13:01:27.505Z,101395.28
2023-05-09T13:04:09.483Z,101393.59
2023-05-09T13:06:48.719Z,101392.34
2023-05-09T13:09:16.043Z,101394.72
2023-05-09T13:11:42.808Z,101392.03
2023-05-09T13:14:09.602Z,101389.66
2023-05-09T13:16:36.527Z,101386.50
2023-05-09T13:19:05.388Z,101393.75
2023-05-09T13:21:33.018Z,101385.38
2023-05-09T13:24:00.097Z,101376.84
2023-05-09T13:26:27.458Z,101379.50
2023-05-09T13:28:54.292Z,101372.66
2023-05-09T13:31:21.563Z,101365.56
2023-05-09T13:33:51.701Z,101363.41
2023-05-09T13:36:19.230Z,101355.25
2023-05-09T13:38:46.247Z,101355.13
2023-05-09T13:41:14.100Z,101352.31
2023-05-09T13:43:43.739Z,101353.09
2023-05-09T13:46:10.614Z,101359.31
2023-05-09T13:48:37.827Z,101354.56
2023-05-09T13:51:06.387Z,101354.97
2023-05-09T13:53:35.046Z,101358.19
2023-05-09T13:56:03.168Z,101356.91
2023-05-09T13:58:29.922Z,101359.31
2023-05-09T14:00:56.677Z,101358.38
2023-05-09T14:03:23.697Z,101354.72
2023-05-09T14:05:51.160Z,101359.94
2023-05-09T14:08:17.988Z,101357.56
2023-05-09T14:10:45.090Z,101355.13
2023-05-09T14:13:12.590Z,101350.66
2023-05-09T14:15:40.270Z,101345.66
2023-05-09T14:18:07.137Z,101350.25
2023-05-09T14:20:36.840Z,101346.91
2023-05-09T14:23:03.675Z,101346.72
2023-05-09T14:25:30.373Z,101345.66
2023-05-09T14:27:58.050Z,101335.00
2023-05-09T14:30:25.776Z,101342.09
2023-05-09T14:32:52.918Z,101345.03
2023-05-09T14:35:19.742Z,101343.50
2023-05-09T14:37:46.661Z,101342.59
2023-05-09T14:40:13.512Z,101347.69
2023-05-09T14:42:40.696Z,101345.94
2023-05-09T14:45:10.829Z,101345.41
2023-05-09T14:47:37.647Z,101341.72
2023-05-09T14:50:04.815Z,101343.66
2023-05-09T14:52:31.843Z,101341.06
2023-05-09T14:54:59.798Z,101347.94
2023-05-09T14:57:26.700Z,101345.06
2023-05-09T14:59:53.415Z,101354.28
2023-05-09T15:02:20.168Z,101352.41
2023-05-09T15:04:46.925Z,101359.50
2023-05-09T15:07:13.633Z,101351.84
2023-05-09T15:09:40.386Z,101352.72
2023-05-09T15:12:07.321Z,101357.28
2023-05-09T15:14:34.069Z,101354.13
2023-05-09T15:17:03.549Z,101346.41
2023-05-09T15:19:35.780Z,101347.94
2023-05-09T15:22:04.730Z,101347.94
2023-05-09T15:24:33.344Z,101341.00
2023-05-09T15:27:00.384Z,101332.47
2023-05-09T15:29:27.301Z,101330.72
2023-05-09T15:31:56.791Z,101326.50
2023-05-09T15:34:25.726Z,101325.69
2023-05-09T15:36:52.534Z,101327.34
2023-05-09T15:39:19.859Z,101321.91
2023-05-09T15:41:46.834Z,101317.56
2023-05-09T15:44:14.706Z,101315.81
2023-05-09T15:46:41.604Z,101313.13
2023-05-09T15:49:08.382Z,101313.13
2023-05-09T15:51:35.055Z,101305.25
2023-05-09T15:54:01.817Z,101303.59
2023-05-09T15:56:28.524Z,101300.06
2023-05-09T15:58:55.360Z,101311.41
2023-05-09T16:01:22.164Z,101300.19
2023-05-09T16:03:49.259Z,101306.25
2023-05-09T16:06:16.487Z,101310.78
2023-05-09T16:08:43.245Z,101314.44
2023-05-09T16:11:10.355Z,101304.25
2023-05-09T16:13:37.406Z,101313.84
2023-05-09T16:16:04.791Z,101311.19
2023-05-09T16:18:31.685Z,101306.00
2023-05-09T16:20:59.831Z,101304.28
2023-05-09T16:23:26.985Z,101301.75
2023-05-09T16:25:53.656Z,101298.41
2023-05-09T16:28:23.590Z,101300.19
2023-05-09T16:30:51.527Z,101288.13
2023-05-09T16:33:18.821Z,101294.19
2023-05-09T16:35:46.074Z,101295.09
2023-05-09T16:38:13.351Z,101293.47
2023-05-09T16:40:40.243Z,101285.81
2023-05-09T16:43:07.368Z,101283.13
2023-05-09T16:45:34.268Z,101282.28
2023-05-09T16:48:02.381Z,101273.72
2023-05-09T16:50:29.486Z,101278.88
2023-05-09T16:52:56.321Z,101271.94
2023-05-09T16:55:23.224Z,101280.53
2023-05-09T16:57:49.980Z,101277.81
2023-05-09T17:00:17.947Z,101281.13
2023-05-09T17:02:44.889Z,101281.13
2023-05-09T17:05:11.817Z,101280.34
2023-05-09T17:07:38.786Z,101276.13
2023-05-09T17:10:05.959Z,101285.66
2023-05-09T17:12:32.632Z,101282.28
2023-05-09T17:14:59.434Z,101277.97
2023-05-09T17:17:26.363Z,101278.91
2023-05-09T17:19:53.214Z,101284.13
2023-05-09T17:22:19.982Z,101272.94
2023-05-09T17:24:46.760Z,101276.38
2023-05-09T17:27:13.758Z,101276.44
2023-05-09T17:29:40.810Z,101278.16
2023-05-09T17:32:07.529Z,101286.84
2023-05-09T17:34:34.298Z,101279.91
2023-05-09T17:37:02.542Z,101280.81
2023-05-09T17:39:32.610Z,101281.72
2023-05-09T17:41:59.454Z,101287.75
2023-05-09T17:44:26.101Z,101288.63
2023-05-09T17:46:52.885Z,101280.09
2023-05-09T17:49:19.563Z,101273.19
2023-05-09T17:51:47.012Z,101281.06
2023-05-09T17:54:14.338Z,101278.50
2023-05-09T17:56:41.659Z,101279.47
2023-05-09T17:59:08.549Z,101266.47
2023-05-09T18:01:35.803Z,101272.56
2023-05-09T18:04:02.985Z,101264.81
2023-05-09T18:06:29.808Z,101265.69
2023-05-09T18:08:56.652Z,101263.13
2023-05-09T18:11:24.549Z,101268.34
2023-05-09T18:13:51.438Z,101277.81
2023-05-09T18:16:18.420Z,101265.72
2023-05-09T18:18:45.369Z,101272.66
2023-05-09T18:21:12.386Z,101270.94
2023-05-09T18:23:39.376Z,101271.84
2023-05-09T18:26:06.357Z,101270.09
2023-05-09T18:28:41.806Z,101277.94
2023-05-09T18:31:10.255Z,101275.34
2023-05-09T18:33:39.073Z,101269.31
2023-05-09T18:36:08.973Z,101268.41
2023-05-09T18:38:38.344Z,101267.56
2023-05-09T18:41:09.726Z,101269.34
2023-05-09T18:43:38.844Z,101272.84
2023-05-09T18:46:05.905Z,101277.16
2023-05-09T18:48:33.599Z,101268.53
2023-05-09T18:51:00.538Z,101270.22
2023-05-09T18:53:28.930Z,101274.56
2023-05-09T18:55:57.016Z,101272.84
2023-05-09T18:58:24.861Z,101273.75
2023-05-09T19:00:53.098Z,101271.16
2023-05-09T19:03:20.969Z,101275.50
2023-05-09T19:05:47.967Z,101277.22
2023-05-09T19:08:15.153Z,101275.50
2023-05-09T19:10:42.558Z,101269.47
2023-05-09T19:13:09.725Z,101277.25
2023-05-09T19:15:36.741Z,101276.41
2023-05-09T19:18:03.946Z,101280.69
2023-05-09T19:20:31.431Z,101280.75
2023-05-09T19:22:59.114Z,101284.25
2023-05-09T19:25:26.503Z,101283.41
2023-05-09T19:27:53.654Z,101281.66
2023-05-09T19:30:21.196Z,101287.72
2023-05-09T19:32:48.456Z,101282.53
2023-05-09T19:35:16.119Z,101288.56
2023-05-09T19:37:43.308Z,101285.13
2023-05-09T19:40:11.377Z,101282.56
2023-05-09T19:42:38.546Z,101284.28
2023-05-09T19:45:06.167Z,101282.56
2023-05-09T19:47:33.311Z,101289.50
2023-05-09T19:50:02.129Z,101286.91
2023-05-09T19:52:30.113Z,101283.47
2023-05-09T19:54:56.870Z,101282.63
2023-05-09T19:57:23.924Z,101290.38
2023-05-09T19:59:52.003Z,101283.44
2023-05-09T20:02:19.035Z,101284.31
2023-05-09T20:04:49.916Z,101289.50
2023-05-09T20:07:18.003Z,101289.53
2023-05-09T20:09:44.888Z,101291.25
2023-05-09T20:12:13.418Z,101290.41
2023-05-09T20:14:40.811Z,101295.59
2023-05-09T20:17:07.769Z,101292.16
2023-05-09T20:19:35.059Z,101291.28
2023-05-09T20:22:02.422Z,101288.69
2023-05-09T20:24:31.550Z,101286.94
2023-05-09T20:26:58.738Z,101286.09
2023-05-09T20:29:26.510Z,101282.63
2023-05-09T20:31:53.490Z,101279.16
2023-05-09T20:34:22.145Z,101280.91
2023-05-09T20:37:00.165Z,101272.28
2023-05-09T20:39:27.525Z,101277.47
2023-05-09T20:41:55.973Z,101267.13
2023-05-09T20:44:22.849Z,101274.06
2023-05-09T20:46:49.719Z,101273.22
2023-05-09T20:49:16.713Z,101269.75
2023-05-09T20:51:43.654Z,101270.63
2023-05-09T20:54:10.786Z,101267.13
2023-05-09T20:56:37.682Z,101268.03
2023-05-09T20:59:06.892Z,101261.13
2023-05-09T21:01:37.025Z,101261.09
2023-05-09T21:04:05.969Z,101258.50
2023-05-09T21:06:33.255Z,101268.03
2023-05-09T21:09:00.201Z,101255.94
2023-05-09T21:11:26.956Z,101263.69
2023-05-09T21:13:54.212Z,101262.84
2023-05-09T21:16:21.253Z,101264.56
2023-05-09T21:18:48.170Z,101263.72
2023-05-09T21:21:14.942Z,101271.47
2023-05-09T21:23:41.712Z,101265.44
2023-05-09T21:26:09.149Z,101269.75
2023-05-09T21:28:36.093Z,101269.75
2023-05-09T21:31:03.407Z,101268.91
2023-05-09T21:33:30.922Z,101267.16
2023-05-09T21:35:58.671Z,101271.50
2023-05-09T21:38:25.566Z,101264.59
2023-05-09T21:40:52.306Z,101266.31
2023-05-09T21:43:19.533Z,101262.00
2023-05-09T21:45:46.475Z,101262.00
2023-05-09T21:48:13.509Z,101262.88
2023-05-09T21:50:40.425Z,101255.13
2023-05-09T21:53:07.272Z,101249.94
2023-05-09T21:55:34.489Z,101262.03
2023-05-09T21:58:01.348Z,101255.97
2023-05-09T22:00:28.099Z,101248.22
2023-05-09T22:02:55.073Z,101240.44
2023-05-09T22:05:23.333Z,101250.81
2023-05-09T22:07:51.320Z,101256.00
2023-05-09T22:10:18.332Z,101249.09
2023-05-09T22:12:45.297Z,101247.38
2023-05-09T22:15:13.490Z,101248.25
2023-05-09T22:17:40.369Z,101245.66
2023-05-09T22:20:07.672Z,101246.50
2023-05-09T22:22:34.498Z,101247.38
2023-05-09T22:25:01.265Z,101242.19
2023-05-09T22:27:28.027Z,101247.38
2023-05-09T22:29:55.551Z,101240.47
2023-05-09T22:32:22.281Z,101236.13
2023-05-09T22:34:49.072Z,101233.53
2023-05-09T22:37:16.106Z,101228.38
2023-05-09T22:39:45.681Z,101231.84
2023-05-09T22:42:12.505Z,101226.66
2023-05-09T22:44:39.547Z,101228.38
2023-05-09T22:47:09.718Z,101231.84
2023-05-09T22:49:36.465Z,101226.66
2023-05-09T22:52:03.367Z,101224.06
2023-05-09T22:54:30.148Z,101228.34
2023-05-09T22:56:56.839Z,101230.94
2023-05-09T22:59:23.839Z,101231.78
2023-05-09T23:01:50.767Z,101240.44
2023-05-09T23:04:17.578Z,101238.69
2023-05-09T23:06:44.368Z,101237.81
2023-05-09T23:09:11.125Z,101236.09
2023-05-09T23:11:37.876Z,101236.94
2023-05-09T23:14:04.657Z,101232.66
2023-05-09T23:16:31.331Z,101234.38
2023-05-09T23:18:58.087Z,101237.84
2023-05-09T23:21:24.824Z,101237.84
2023-05-09T23:23:51.556Z,101233.47
2023-05-09T23:26:18.208Z,101228.31
2023-05-09T23:28:44.896Z,101223.88
2023-05-09T23:31:11.681Z,101216.13
2023-05-09T23:33:38.392Z,101212.69
2023-05-09T23:36:05.509Z,101207.53
2023-05-09T23:38:32.220Z,101199.72
2023-05-09T23:41:00.095Z,101201.44
2023-05-09T23:43:27.008Z,101185.03
2023-05-09T23:45:53.979Z,101180.75
2023-05-09T23:48:20.807Z,101175.59
2023-05-09T23:50:47.839Z,101166.13
2023-05-09T23:53:14.636Z,101166.97
2023-05-09T23:55:41.356Z,101148.75
2023-05-09T23:58:08.064Z,101146.22
